sensor_id;sensor_type;location;lat;lon;timestamp;P1;durP1;ratioP1;P2;durP2;ratioP2
51985;SDS011;38002;53.296;6.600;2023-09-18T00:04:24;15.68;;;13.98;;
51985;SDS011;38002;53.296;6.600;2023-09-18T00:09:25;18.03;;;15.17;;
51985;SDS011;38002;53.296;6.600;2023-09-18T00:14:25;19.67;;;14.77;;
51985;SDS011;38002;53.296;6.600;2023-09-18T00:19:26;21.27;;;17.38;;
51985;SDS011;38002;53.296;6.600;2023-09-18T00:24:27;22.83;;;17.77;;
51985;SDS011;38002;53.296;6.600;2023-09-18T00:29:28;29.40;;;20.20;;
51985;SDS011;38002;53.296;6.600;2023-09-18T00:34:29;27.40;;;20.97;;
51985;SDS011;38002;53.296;6.600;2023-09-18T00:39:29;31.30;;;20.60;;
51985;SDS011;38002;53.296;6.600;2023-09-18T00:49:31;21.37;;;17.07;;
51985;SDS011;38002;53.296;6.600;2023-09-18T00:54:33;23.90;;;18.98;;
51985;SDS011;38002;53.296;6.600;2023-09-18T00:59:35;27.42;;;20.13;;
51985;SDS011;38002;53.296;6.600;2023-09-18T01:04:36;23.98;;;18.00;;
51985;SDS011;38002;53.296;6.600;2023-09-18T01:09:37;26.43;;;17.27;;
51985;SDS011;38002;53.296;6.600;2023-09-18T01:14:48;18.37;;;16.47;;
51985;SDS011;38002;53.296;6.600;2023-09-18T01:19:57;26.45;;;19.13;;
51985;SDS011;38002;53.296;6.600;2023-09-18T01:24:57;25.30;;;21.27;;
51985;SDS011;38002;53.296;6.600;2023-09-18T01:29:58;30.35;;;23.17;;
51985;SDS011;38002;53.296;6.600;2023-09-18T01:34:59;29.10;;;23.40;;
51985;SDS011;38002;53.296;6.600;2023-09-18T01:40:01;31.35;;;23.58;;
51985;SDS011;38002;53.296;6.600;2023-09-18T01:45:06;35.42;;;23.38;;
51985;SDS011;38002;53.296;6.600;2023-09-18T01:50:07;29.47;;;24.10;;
51985;SDS011;38002;53.296;6.600;2023-09-18T01:55:08;30.37;;;24.13;;
51985;SDS011;38002;53.296;6.600;2023-09-18T02:00:09;28.70;;;21.20;;
51985;SDS011;38002;53.296;6.600;2023-09-18T02:05:10;31.98;;;23.00;;
51985;SDS011;38002;53.296;6.600;2023-09-18T02:10:10;29.20;;;22.83;;
51985;SDS011;38002;53.296;6.600;2023-09-18T02:15:12;23.67;;;19.92;;
51985;SDS011;38002;53.296;6.600;2023-09-18T02:20:13;33.50;;;25.23;;
51985;SDS011;38002;53.296;6.600;2023-09-18T02:25:14;32.17;;;24.87;;
51985;SDS011;38002;53.296;6.600;2023-09-18T02:30:14;34.80;;;26.67;;
51985;SDS011;38002;53.296;6.600;2023-09-18T02:35:15;26.10;;;22.00;;
51985;SDS011;38002;53.296;6.600;2023-09-18T02:40:15;38.10;;;24.50;;
51985;SDS011;38002;53.296;6.600;2023-09-18T02:45:16;29.00;;;23.87;;
51985;SDS011;38002;53.296;6.600;2023-09-18T02:50:16;26.73;;;22.40;;
51985;SDS011;38002;53.296;6.600;2023-09-18T02:55:17;32.33;;;20.23;;
51985;SDS011;38002;53.296;6.600;2023-09-18T03:00:17;31.47;;;24.53;;
51985;SDS011;38002;53.296;6.600;2023-09-18T03:05:18;29.87;;;23.73;;
51985;SDS011;38002;53.296;6.600;2023-09-18T03:10:18;34.23;;;24.00;;
51985;SDS011;38002;53.296;6.600;2023-09-18T03:15:19;29.80;;;24.60;;
51985;SDS011;38002;53.296;6.600;2023-09-18T03:20:26;31.43;;;25.83;;
51985;SDS011;38002;53.296;6.600;2023-09-18T03:25:28;37.53;;;27.13;;
51985;SDS011;38002;53.296;6.600;2023-09-18T03:30:29;30.73;;;25.53;;
51985;SDS011;38002;53.296;6.600;2023-09-18T03:35:30;27.80;;;22.90;;
51985;SDS011;38002;53.296;6.600;2023-09-18T03:40:32;26.70;;;18.13;;
51985;SDS011;38002;53.296;6.600;2023-09-18T03:45:32;27.13;;;22.70;;
51985;SDS011;38002;53.296;6.600;2023-09-18T03:50:33;25.10;;;20.17;;
51985;SDS011;38002;53.296;6.600;2023-09-18T03:55:34;20.63;;;18.47;;
51985;SDS011;38002;53.296;6.600;2023-09-18T04:00:34;32.90;;;19.90;;
51985;SDS011;38002;53.296;6.600;2023-09-18T04:05:35;24.63;;;20.53;;
51985;SDS011;38002;53.296;6.600;2023-09-18T04:10:36;35.27;;;17.43;;
51985;SDS011;38002;53.296;6.600;2023-09-18T04:15:37;24.83;;;20.80;;
51985;SDS011;38002;53.296;6.600;2023-09-18T04:20:38;22.23;;;19.33;;
51985;SDS011;38002;53.296;6.600;2023-09-18T04:25:38;26.10;;;20.83;;
51985;SDS011;38002;53.296;6.600;2023-09-18T04:30:39;21.00;;;17.47;;
51985;SDS011;38002;53.296;6.600;2023-09-18T04:35:39;17.07;;;14.87;;
51985;SDS011;38002;53.296;6.600;2023-09-18T04:40:40;19.40;;;17.38;;
51985;SDS011;38002;53.296;6.600;2023-09-18T04:45:41;29.40;;;20.60;;
51985;SDS011;38002;53.296;6.600;2023-09-18T04:50:43;25.77;;;20.15;;
51985;SDS011;38002;53.296;6.600;2023-09-18T04:55:43;24.27;;;18.93;;
51985;SDS011;38002;53.296;6.600;2023-09-18T05:00:44;26.10;;;20.03;;
51985;SDS011;38002;53.296;6.600;2023-09-18T05:05:44;21.30;;;17.73;;
51985;SDS011;38002;53.296;6.600;2023-09-18T05:10:45;22.37;;;18.47;;
51985;SDS011;38002;53.296;6.600;2023-09-18T05:15:46;24.83;;;20.40;;
51985;SDS011;38002;53.296;6.600;2023-09-18T05:20:46;26.90;;;18.50;;
51985;SDS011;38002;53.296;6.600;2023-09-18T05:25:47;30.47;;;18.13;;
51985;SDS011;38002;53.296;6.600;2023-09-18T05:30:47;26.07;;;19.63;;
51985;SDS011;38002;53.296;6.600;2023-09-18T05:35:48;24.40;;;18.40;;
51985;SDS011;38002;53.296;6.600;2023-09-18T05:40:48;28.77;;;18.50;;
51985;SDS011;38002;53.296;6.600;2023-09-18T05:45:49;25.30;;;20.30;;
51985;SDS011;38002;53.296;6.600;2023-09-18T05:50:49;23.63;;;18.50;;
51985;SDS011;38002;53.296;6.600;2023-09-18T05:55:50;24.60;;;17.80;;
51985;SDS011;38002;53.296;6.600;2023-09-18T06:00:51;23.90;;;18.83;;
51985;SDS011;38002;53.296;6.600;2023-09-18T06:05:51;28.43;;;18.90;;
51985;SDS011;38002;53.296;6.600;2023-09-18T06:10:52;23.43;;;18.10;;
51985;SDS011;38002;53.296;6.600;2023-09-18T06:15:53;25.33;;;17.20;;
51985;SDS011;38002;53.296;6.600;2023-09-18T06:20:54;20.55;;;16.58;;
51985;SDS011;38002;53.296;6.600;2023-09-18T06:25:55;22.47;;;14.57;;
51985;SDS011;38002;53.296;6.600;2023-09-18T06:30:56;22.27;;;16.17;;
51985;SDS011;38002;53.296;6.600;2023-09-18T06:35:56;15.37;;;13.70;;
51985;SDS011;38002;53.296;6.600;2023-09-18T06:40:57;20.43;;;14.70;;
51985;SDS011;38002;53.296;6.600;2023-09-18T06:45:57;16.00;;;13.23;;
51985;SDS011;38002;53.296;6.600;2023-09-18T06:50:58;17.13;;;13.50;;
51985;SDS011;38002;53.296;6.600;2023-09-18T06:56:00;19.38;;;13.82;;
51985;SDS011;38002;53.296;6.600;2023-09-18T07:01:00;12.90;;;9.83;;
51985;SDS011;38002;53.296;6.600;2023-09-18T07:06:01;19.57;;;11.83;;
51985;SDS011;38002;53.296;6.600;2023-09-18T07:11:02;15.18;;;11.25;;
51985;SDS011;38002;53.296;6.600;2023-09-18T07:16:02;23.50;;;13.57;;
51985;SDS011;38002;53.296;6.600;2023-09-18T07:21:03;25.33;;;13.57;;
51985;SDS011;38002;53.296;6.600;2023-09-18T07:26:03;15.63;;;11.70;;
51985;SDS011;38002;53.296;6.600;2023-09-18T07:31:05;19.93;;;12.53;;
51985;SDS011;38002;53.296;6.600;2023-09-18T07:36:09;16.70;;;12.32;;
51985;SDS011;38002;53.296;6.600;2023-09-18T07:41:15;15.80;;;11.65;;
51985;SDS011;38002;53.296;6.600;2023-09-18T07:46:15;15.70;;;11.87;;
51985;SDS011;38002;53.296;6.600;2023-09-18T07:51:16;23.48;;;14.07;;
51985;SDS011;38002;53.296;6.600;2023-09-18T07:56:17;17.90;;;13.23;;
51985;SDS011;38002;53.296;6.600;2023-09-18T08:01:19;18.30;;;13.45;;
51985;SDS011;38002;53.296;6.600;2023-09-18T08:06:22;19.70;;;14.27;;
51985;SDS011;38002;53.296;6.600;2023-09-18T08:11:23;19.63;;;13.10;;
51985;SDS011;38002;53.296;6.600;2023-09-18T08:16:23;24.63;;;15.60;;
51985;SDS011;38002;53.296;6.600;2023-09-18T08:21:24;19.67;;;14.27;;
51985;SDS011;38002;53.296;6.600;2023-09-18T08:26:24;19.70;;;14.93;;
51985;SDS011;38002;53.296;6.600;2023-09-18T08:31:28;19.08;;;15.00;;
51985;SDS011;38002;53.296;6.600;2023-09-18T08:36:31;18.10;;;13.32;;
51985;SDS011;38002;53.296;6.600;2023-09-18T08:41:32;20.77;;;14.53;;
51985;SDS011;38002;53.296;6.600;2023-09-18T08:46:36;24.83;;;15.35;;
51985;SDS011;38002;53.296;6.600;2023-09-18T08:51:37;20.13;;;13.40;;
51985;SDS011;38002;53.296;6.600;2023-09-18T08:56:38;19.05;;;13.05;;
51985;SDS011;38002;53.296;6.600;2023-09-18T09:01:39;21.27;;;11.93;;
51985;SDS011;38002;53.296;6.600;2023-09-18T09:06:40;15.40;;;12.43;;
51985;SDS011;38002;53.296;6.600;2023-09-18T09:11:47;17.33;;;12.40;;
51985;SDS011;38002;53.296;6.600;2023-09-18T09:16:50;13.25;;;9.77;;
51985;SDS011;38002;53.296;6.600;2023-09-18T09:21:51;13.70;;;11.02;;
51985;SDS011;38002;53.296;6.600;2023-09-18T09:26:57;13.75;;;9.75;;
51985;SDS011;38002;53.296;6.600;2023-09-18T09:32:15;16.42;;;10.05;;
51985;SDS011;38002;53.296;6.600;2023-09-18T09:37:17;20.23;;;12.13;;
51985;SDS011;38002;53.296;6.600;2023-09-18T09:42:18;15.47;;;10.03;;
51985;SDS011;38002;53.296;6.600;2023-09-18T09:47:24;16.60;;;13.65;;
51985;SDS011;38002;53.296;6.600;2023-09-18T09:52:25;17.88;;;13.15;;
51985;SDS011;38002;53.296;6.600;2023-09-18T09:57:26;15.27;;;10.47;;
51985;SDS011;38002;53.296;6.600;2023-09-18T10:02:27;28.20;;;13.70;;
51985;SDS011;38002;53.296;6.600;2023-09-18T10:07:27;15.80;;;11.68;;
51985;SDS011;38002;53.296;6.600;2023-09-18T10:12:28;20.37;;;13.07;;
51985;SDS011;38002;53.296;6.600;2023-09-18T10:17:29;20.95;;;15.93;;
51985;SDS011;38002;53.296;6.600;2023-09-18T10:22:39;22.35;;;16.25;;
51985;SDS011;38002;53.296;6.600;2023-09-18T10:27:47;19.83;;;14.75;;
51985;SDS011;38002;53.296;6.600;2023-09-18T10:32:53;20.25;;;17.35;;
51985;SDS011;38002;53.296;6.600;2023-09-18T10:42:56;18.20;;;15.10;;
51985;SDS011;38002;53.296;6.600;2023-09-18T10:47:58;15.05;;;13.55;;
51985;SDS011;38002;53.296;6.600;2023-09-18T10:52:59;18.45;;;16.45;;
51985;SDS011;38002;53.296;6.600;2023-09-18T10:58:00;14.80;;;12.13;;
51985;SDS011;38002;53.296;6.600;2023-09-18T11:03:14;13.33;;;11.57;;
51985;SDS011;38002;53.296;6.600;2023-09-18T11:13:29;10.57;;;8.00;;
51985;SDS011;38002;53.296;6.600;2023-09-18T11:18:33;11.38;;;8.85;;
51985;SDS011;38002;53.296;6.600;2023-09-18T11:23:35;7.90;;;7.18;;
51985;SDS011;38002;53.296;6.600;2023-09-18T11:28:37;10.68;;;6.80;;
51985;SDS011;38002;53.296;6.600;2023-09-18T11:33:39;8.53;;;5.07;;
51985;SDS011;38002;53.296;6.600;2023-09-18T11:38:57;7.60;;;5.60;;
51985;SDS011;38002;53.296;6.600;2023-09-18T11:49:14;4.85;;;4.43;;
51985;SDS011;38002;53.296;6.600;2023-09-18T11:54:16;5.57;;;4.30;;
51985;SDS011;38002;53.296;6.600;2023-09-18T12:04:27;4.15;;;3.80;;
51985;SDS011;38002;53.296;6.600;2023-09-18T12:09:30;4.53;;;3.67;;
51985;SDS011;38002;53.296;6.600;2023-09-18T12:14:31;8.85;;;4.68;;
51985;SDS011;38002;53.296;6.600;2023-09-18T12:19:33;10.32;;;4.68;;
51985;SDS011;38002;53.296;6.600;2023-09-18T12:24:35;11.13;;;4.57;;
51985;SDS011;38002;53.296;6.600;2023-09-18T12:29:37;4.10;;;3.70;;
51985;SDS011;38002;53.296;6.600;2023-09-18T12:34:37;5.00;;;4.18;;
51985;SDS011;38002;53.296;6.600;2023-09-18T12:39:41;7.25;;;4.45;;
51985;SDS011;38002;53.296;6.600;2023-09-18T12:44:41;7.83;;;4.40;;
51985;SDS011;38002;53.296;6.600;2023-09-18T12:49:42;4.30;;;3.87;;
51985;SDS011;38002;53.296;6.600;2023-09-18T12:54:44;4.28;;;3.90;;
51985;SDS011;38002;53.296;6.600;2023-09-18T12:59:54;6.45;;;4.38;;
51985;SDS011;38002;53.296;6.600;2023-09-18T13:04:55;6.05;;;3.88;;
51985;SDS011;38002;53.296;6.600;2023-09-18T13:15:05;5.82;;;4.22;;
51985;SDS011;38002;53.296;6.600;2023-09-18T13:20:10;7.80;;;4.25;;
51985;SDS011;38002;53.296;6.600;2023-09-18T13:25:13;4.93;;;3.00;;
51985;SDS011;38002;53.296;6.600;2023-09-18T13:30:21;3.28;;;2.80;;
51985;SDS011;38002;53.296;6.600;2023-09-18T13:35:24;4.50;;;3.00;;
51985;SDS011;38002;53.296;6.600;2023-09-18T13:40:25;5.50;;;3.38;;
51985;SDS011;38002;53.296;6.600;2023-09-18T13:45:26;3.33;;;2.95;;
51985;SDS011;38002;53.296;6.600;2023-09-18T13:50:27;7.53;;;3.60;;
51985;SDS011;38002;53.296;6.600;2023-09-18T13:55:27;6.03;;;3.20;;
51985;SDS011;38002;53.296;6.600;2023-09-18T14:00:29;4.60;;;4.20;;
51985;SDS011;38002;53.296;6.600;2023-09-18T14:10:33;8.40;;;3.88;;
51985;SDS011;38002;53.296;6.600;2023-09-18T14:15:34;7.88;;;3.40;;
51985;SDS011;38002;53.296;6.600;2023-09-18T14:20:35;3.80;;;3.30;;
51985;SDS011;38002;53.296;6.600;2023-09-18T14:25:35;3.10;;;2.90;;
51985;SDS011;38002;53.296;6.600;2023-09-18T14:30:36;3.05;;;2.60;;
51985;SDS011;38002;53.296;6.600;2023-09-18T14:35:37;6.83;;;3.03;;
51985;SDS011;38002;53.296;6.600;2023-09-18T14:40:40;4.67;;;3.73;;
51985;SDS011;38002;53.296;6.600;2023-09-18T14:45:42;3.35;;;3.05;;
51985;SDS011;38002;53.296;6.600;2023-09-18T14:50:43;5.20;;;2.85;;
51985;SDS011;38002;53.296;6.600;2023-09-18T14:55:44;3.00;;;2.65;;
51985;SDS011;38002;53.296;6.600;2023-09-18T15:00:45;4.35;;;2.95;;
51985;SDS011;38002;53.296;6.600;2023-09-18T15:05:45;3.93;;;2.90;;
51985;SDS011;38002;53.296;6.600;2023-09-18T15:10:46;3.47;;;3.17;;
51985;SDS011;38002;53.296;6.600;2023-09-18T15:15:46;3.00;;;2.80;;
51985;SDS011;38002;53.296;6.600;2023-09-18T15:20:47;8.53;;;3.33;;
51985;SDS011;38002;53.296;6.600;2023-09-18T15:25:48;3.90;;;3.47;;
51985;SDS011;38002;53.296;6.600;2023-09-18T15:30:50;4.45;;;3.75;;
51985;SDS011;38002;53.296;6.600;2023-09-18T15:35:52;4.10;;;3.70;;
51985;SDS011;38002;53.296;6.600;2023-09-18T15:40:53;3.65;;;2.80;;
51985;SDS011;38002;53.296;6.600;2023-09-18T15:45:53;6.27;;;2.87;;
51985;SDS011;38002;53.296;6.600;2023-09-18T15:50:54;4.33;;;3.63;;
51985;SDS011;38002;53.296;6.600;2023-09-18T15:55:54;4.30;;;2.90;;
51985;SDS011;38002;53.296;6.600;2023-09-18T16:00:54;3.87;;;3.10;;
51985;SDS011;38002;53.296;6.600;2023-09-18T16:05:58;2.85;;;2.63;;
51985;SDS011;38002;53.296;6.600;2023-09-18T16:10:58;3.47;;;2.60;;
51985;SDS011;38002;53.296;6.600;2023-09-18T16:15:59;8.45;;;3.45;;
51985;SDS011;38002;53.296;6.600;2023-09-18T16:21:02;4.97;;;3.22;;
51985;SDS011;38002;53.296;6.600;2023-09-18T16:26:03;3.63;;;2.88;;
51985;SDS011;38002;53.296;6.600;2023-09-18T16:31:05;10.68;;;2.95;;
51985;SDS011;38002;53.296;6.600;2023-09-18T16:36:27;4.40;;;2.88;;
51985;SDS011;38002;53.296;6.600;2023-09-18T16:41:28;1.55;;;1.52;;
51985;SDS011;38002;53.296;6.600;2023-09-18T16:46:28;2.70;;;2.40;;
51985;SDS011;38002;53.296;6.600;2023-09-18T16:51:29;6.17;;;2.83;;
51985;SDS011;38002;53.296;6.600;2023-09-18T16:56:30;3.10;;;2.00;;
51985;SDS011;38002;53.296;6.600;2023-09-18T17:01:31;4.93;;;2.30;;
51985;SDS011;38002;53.296;6.600;2023-09-18T17:11:35;4.30;;;2.28;;
51985;SDS011;38002;53.296;6.600;2023-09-18T17:16:35;3.47;;;2.50;;
51985;SDS011;38002;53.296;6.600;2023-09-18T17:21:36;2.58;;;2.28;;
51985;SDS011;38002;53.296;6.600;2023-09-18T17:26:39;3.45;;;1.48;;
51985;SDS011;38002;53.296;6.600;2023-09-18T17:31:42;3.25;;;1.58;;
51985;SDS011;38002;53.296;6.600;2023-09-18T17:36:43;1.60;;;1.40;;
51985;SDS011;38002;53.296;6.600;2023-09-18T17:41:44;3.42;;;1.40;;
51985;SDS011;38002;53.296;6.600;2023-09-18T17:46:44;4.87;;;1.57;;
51985;SDS011;38002;53.296;6.600;2023-09-18T17:51:45;3.20;;;1.33;;
51985;SDS011;38002;53.296;6.600;2023-09-18T17:56:46;2.50;;;1.20;;
51985;SDS011;38002;53.296;6.600;2023-09-18T18:01:47;1.10;;;1.10;;
51985;SDS011;38002;53.296;6.600;2023-09-18T18:06:48;1.10;;;1.00;;
51985;SDS011;38002;53.296;6.600;2023-09-18T18:11:49;2.53;;;1.33;;
51985;SDS011;38002;53.296;6.600;2023-09-18T18:16:49;3.27;;;1.20;;
51985;SDS011;38002;53.296;6.600;2023-09-18T18:21:50;1.70;;;0.90;;
51985;SDS011;38002;53.296;6.600;2023-09-18T18:26:50;3.00;;;1.20;;
51985;SDS011;38002;53.296;6.600;2023-09-18T18:31:52;3.15;;;1.20;;
51985;SDS011;38002;53.296;6.600;2023-09-18T18:36:54;3.25;;;1.58;;
51985;SDS011;38002;53.296;6.600;2023-09-18T18:41:59;9.00;;;1.17;;
51985;SDS011;38002;53.296;6.600;2023-09-18T18:46:59;1.53;;;1.30;;
51985;SDS011;38002;53.296;6.600;2023-09-18T18:52:00;4.32;;;1.55;;
51985;SDS011;38002;53.296;6.600;2023-09-18T18:57:03;5.05;;;1.15;;
51985;SDS011;38002;53.296;6.600;2023-09-18T19:02:06;6.10;;;1.63;;
51985;SDS011;38002;53.296;6.600;2023-09-18T19:07:07;3.63;;;1.83;;
51985;SDS011;38002;53.296;6.600;2023-09-18T19:12:08;3.17;;;1.63;;
51985;SDS011;38002;53.296;6.600;2023-09-18T19:17:21;1.85;;;1.60;;
51985;SDS011;38002;53.296;6.600;2023-09-18T19:27:23;2.33;;;1.43;;
51985;SDS011;38002;53.296;6.600;2023-09-18T19:32:24;4.97;;;1.83;;
51985;SDS011;38002;53.296;6.600;2023-09-18T19:37:27;4.35;;;1.67;;
51985;SDS011;38002;53.296;6.600;2023-09-18T19:42:28;5.30;;;1.73;;
51985;SDS011;38002;53.296;6.600;2023-09-18T19:47:29;4.93;;;1.80;;
51985;SDS011;38002;53.296;6.600;2023-09-18T19:52:29;3.17;;;2.30;;
51985;SDS011;38002;53.296;6.600;2023-09-18T19:57:34;4.63;;;1.98;;
51985;SDS011;38002;53.296;6.600;2023-09-18T20:02:35;10.18;;;2.30;;
51985;SDS011;38002;53.296;6.600;2023-09-18T20:07:37;6.15;;;2.03;;
51985;SDS011;38002;53.296;6.600;2023-09-18T20:12:37;10.17;;;2.10;;
51985;SDS011;38002;53.296;6.600;2023-09-18T20:17:39;7.40;;;2.03;;
51985;SDS011;38002;53.296;6.600;2023-09-18T20:22:40;2.20;;;1.67;;
51985;SDS011;38002;53.296;6.600;2023-09-18T20:27:41;2.83;;;1.40;;
51985;SDS011;38002;53.296;6.600;2023-09-18T20:32:42;2.80;;;1.20;;
51985;SDS011;38002;53.296;6.600;2023-09-18T20:37:44;2.30;;;1.38;;
51985;SDS011;38002;53.296;6.600;2023-09-18T20:42:44;6.27;;;1.73;;
51985;SDS011;38002;53.296;6.600;2023-09-18T20:47:48;2.70;;;1.40;;
51985;SDS011;38002;53.296;6.600;2023-09-18T20:52:48;5.47;;;1.75;;
51985;SDS011;38002;53.296;6.600;2023-09-18T20:57:49;8.53;;;2.03;;
51985;SDS011;38002;53.296;6.600;2023-09-18T21:02:49;6.23;;;1.40;;
51985;SDS011;38002;53.296;6.600;2023-09-18T21:07:50;6.93;;;1.80;;
51985;SDS011;38002;53.296;6.600;2023-09-18T21:12:51;12.30;;;2.23;;
51985;SDS011;38002;53.296;6.600;2023-09-18T21:17:52;6.65;;;2.40;;
51985;SDS011;38002;53.296;6.600;2023-09-18T21:22:52;4.90;;;1.43;;
51985;SDS011;38002;53.296;6.600;2023-09-18T21:27:53;7.30;;;1.50;;
51985;SDS011;38002;53.296;6.600;2023-09-18T21:33:00;4.18;;;1.00;;
51985;SDS011;38002;53.296;6.600;2023-09-18T21:38:04;7.20;;;1.40;;
51985;SDS011;38002;53.296;6.600;2023-09-18T21:43:05;5.83;;;1.40;;
51985;SDS011;38002;53.296;6.600;2023-09-18T21:48:05;5.37;;;1.13;;
51985;SDS011;38002;53.296;6.600;2023-09-18T21:53:06;10.80;;;1.60;;
51985;SDS011;38002;53.296;6.600;2023-09-18T21:58:07;1.77;;;1.10;;
51985;SDS011;38002;53.296;6.600;2023-09-18T22:03:08;7.40;;;1.60;;
51985;SDS011;38002;53.296;6.600;2023-09-18T22:08:09;4.85;;;1.13;;
51985;SDS011;38002;53.296;6.600;2023-09-18T22:13:10;8.90;;;1.73;;
51985;SDS011;38002;53.296;6.600;2023-09-18T22:18:11;6.38;;;1.23;;
51985;SDS011;38002;53.296;6.600;2023-09-18T22:23:12;6.07;;;1.30;;
51985;SDS011;38002;53.296;6.600;2023-09-18T22:28:13;4.43;;;1.25;;
51985;SDS011;38002;53.296;6.600;2023-09-18T22:33:16;7.13;;;1.50;;
51985;SDS011;38002;53.296;6.600;2023-09-18T22:55:24;7.70;;;1.25;;
51985;SDS011;38002;53.296;6.600;2023-09-18T23:00:25;5.93;;;1.63;;
51985;SDS011;38002;53.296;6.600;2023-09-18T23:05:30;5.72;;;1.55;;
51985;SDS011;38002;53.296;6.600;2023-09-18T23:10:34;4.38;;;1.35;;
51985;SDS011;38002;53.296;6.600;2023-09-18T23:15:36;4.57;;;0.98;;
51985;SDS011;38002;53.296;6.600;2023-09-18T23:20:37;2.47;;;1.37;;
51985;SDS011;38002;53.296;6.600;2023-09-18T23:35:42;4.55;;;1.52;;
51985;SDS011;38002;53.296;6.600;2023-09-18T23:40:45;8.70;;;1.48;;
51985;SDS011;38002;53.296;6.600;2023-09-18T23:45:45;15.57;;;1.40;;
51985;SDS011;38002;53.296;6.600;2023-09-18T23:50:47;7.43;;;1.40;;
51985;SDS011;38002;53.296;6.600;2023-09-18T23:55:51;3.55;;;1.27;;
